sensor_id;sensor_type;location;lat;lon;timestamp;temperature;humidity
25937;DHT22;13733;51.178;4.450;2023-01-29T00:01:30;1.20;99.90
25937;DHT22;13733;51.178;4.450;2023-01-29T00:03:56;1.20;99.90
25937;DHT22;13733;51.178;4.450;2023-01-29T00:06:23;1.30;99.90
25937;DHT22;13733;51.178;4.450;2023-01-29T00:08:49;1.40;99.90
25937;DHT22;13733;51.178;4.450;2023-01-29T00:11:15;1.40;99.90
25937;DHT22;13733;51.178;4.450;2023-01-29T00:13:44;1.40;99.90
25937;DHT22;13733;51.178;4.450;2023-01-29T00:16:10;1.40;99.90
25937;DHT22;13733;51.178;4.450;2023-01-29T00:18:40;1.30;99.90
25937;DHT22;13733;51.178;4.450;2023-01-29T00:21:10;1.20;99.90
25937;DHT22;13733;51.178;4.450;2023-01-29T00:23:36;1.10;99.90
25937;DHT22;13733;51.178;4.450;2023-01-29T00:26:01;1.10;99.90
25937;DHT22;13733;51.178;4.450;2023-01-29T00:28:28;1.00;99.90
25937;DHT22;13733;51.178;4.450;2023-01-29T00:30:54;0.90;99.90
25937;DHT22;13733;51.178;4.450;2023-01-29T00:33:20;0.90;99.90
25937;DHT22;13733;51.178;4.450;2023-01-29T00:35:46;0.90;99.90
25937;DHT22;13733;51.178;4.450;2023-01-29T00:38:11;0.90;99.90
25937;DHT22;13733;51.178;4.450;2023-01-29T00:40:38;1.00;99.90
25937;DHT22;13733;51.178;4.450;2023-01-29T00:43:23;1.10;99.90
25937;DHT22;13733;51.178;4.450;2023-01-29T00:46:07;1.10;99.90
25937;DHT22;13733;51.178;4.450;2023-01-29T00:48:33;1.00;99.90
25937;DHT22;13733;51.178;4.450;2023-01-29T00:51:00;0.90;99.90
25937;DHT22;13733;51.178;4.450;2023-01-29T00:53:26;0.90;99.90
25937;DHT22;13733;51.178;4.450;2023-01-29T00:55:52;0.90;99.90
25937;DHT22;13733;51.178;4.450;2023-01-29T00:58:18;0.90;99.90
25937;DHT22;13733;51.178;4.450;2023-01-29T01:00:54;0.80;99.90
25937;DHT22;13733;51.178;4.450;2023-01-29T01:03:20;0.80;99.90
25937;DHT22;13733;51.178;4.450;2023-01-29T01:05:46;0.70;99.90
25937;DHT22;13733;51.178;4.450;2023-01-29T01:08:12;0.70;99.90
25937;DHT22;13733;51.178;4.450;2023-01-29T01:11:04;0.70;99.90
25937;DHT22;13733;51.178;4.450;2023-01-29T01:13:33;0.70;99.90
25937;DHT22;13733;51.178;4.450;2023-01-29T01:15:59;0.70;99.90
25937;DHT22;13733;51.178;4.450;2023-01-29T01:18:28;0.70;99.90
25937;DHT22;13733;51.178;4.450;2023-01-29T01:20:57;0.60;99.90
25937;DHT22;13733;51.178;4.450;2023-01-29T01:23:24;0.60;99.90
25937;DHT22;13733;51.178;4.450;2023-01-29T01:25:51;0.70;99.90
25937;DHT22;13733;51.178;4.450;2023-01-29T01:28:16;0.80;99.90
25937;DHT22;13733;51.178;4.450;2023-01-29T01:30:42;0.60;99.90
25937;DHT22;13733;51.178;4.450;2023-01-29T01:33:08;0.50;99.90
25937;DHT22;13733;51.178;4.450;2023-01-29T01:35:33;0.50;99.90
25937;DHT22;13733;51.178;4.450;2023-01-29T01:37:59;0.70;99.90
25937;DHT22;13733;51.178;4.450;2023-01-29T01:40:25;0.70;99.90
25937;DHT22;13733;51.178;4.450;2023-01-29T01:42:55;0.60;99.90
25937;DHT22;13733;51.178;4.450;2023-01-29T01:50:33;0.70;99.90
25937;DHT22;13733;51.178;4.450;2023-01-29T01:53:10;0.60;99.90
25937;DHT22;13733;51.178;4.450;2023-01-29T01:55:49;0.50;99.90
25937;DHT22;13733;51.178;4.450;2023-01-29T01:58:25;0.40;99.90
25937;DHT22;13733;51.178;4.450;2023-01-29T02:00:52;0.30;99.90
25937;DHT22;13733;51.178;4.450;2023-01-29T02:03:19;0.50;99.90
25937;DHT22;13733;51.178;4.450;2023-01-29T02:06:05;0.50;99.90
25937;DHT22;13733;51.178;4.450;2023-01-29T02:08:59;0.60;99.90
25937;DHT22;13733;51.178;4.450;2023-01-29T02:11:44;0.60;99.90
25937;DHT22;13733;51.178;4.450;2023-01-29T02:14:10;0.60;99.90
25937;DHT22;13733;51.178;4.450;2023-01-29T02:16:37;0.70;99.90
25937;DHT22;13733;51.178;4.450;2023-01-29T02:19:06;0.90;99.90
25937;DHT22;13733;51.178;4.450;2023-01-29T02:21:44;0.90;99.90
25937;DHT22;13733;51.178;4.450;2023-01-29T02:24:20;1.00;99.90
25937;DHT22;13733;51.178;4.450;2023-01-29T02:32:59;1.40;99.90
25937;DHT22;13733;51.178;4.450;2023-01-29T02:35:40;1.40;99.90
25937;DHT22;13733;51.178;4.450;2023-01-29T02:41:22;1.70;99.90
25937;DHT22;13733;51.178;4.450;2023-01-29T02:44:15;1.60;99.90
25937;DHT22;13733;51.178;4.450;2023-01-29T02:46:56;1.60;99.90
25937;DHT22;13733;51.178;4.450;2023-01-29T02:54:40;1.70;99.90
25937;DHT22;13733;51.178;4.450;2023-01-29T02:57:29;1.80;99.90
25937;DHT22;13733;51.178;4.450;2023-01-29T03:00:03;1.50;99.90
25937;DHT22;13733;51.178;4.450;2023-01-29T03:02:37;1.50;99.90
25937;DHT22;13733;51.178;4.450;2023-01-29T03:05:12;1.70;99.90
25937;DHT22;13733;51.178;4.450;2023-01-29T03:07:45;1.60;99.90
25937;DHT22;13733;51.178;4.450;2023-01-29T03:10:33;1.60;99.90
25937;DHT22;13733;51.178;4.450;2023-01-29T03:13:17;1.70;99.90
25937;DHT22;13733;51.178;4.450;2023-01-29T03:15:53;1.90;99.90
25937;DHT22;13733;51.178;4.450;2023-01-29T03:18:40;1.80;99.90
25937;DHT22;13733;51.178;4.450;2023-01-29T03:21:18;1.70;99.90
25937;DHT22;13733;51.178;4.450;2023-01-29T03:24:05;1.70;99.90
25937;DHT22;13733;51.178;4.450;2023-01-29T03:26:51;1.80;99.90
25937;DHT22;13733;51.178;4.450;2023-01-29T03:29:41;1.90;99.90
25937;DHT22;13733;51.178;4.450;2023-01-29T03:32:43;1.90;99.90
25937;DHT22;13733;51.178;4.450;2023-01-29T03:35:14;2.00;99.90
25937;DHT22;13733;51.178;4.450;2023-01-29T03:37:47;2.00;99.90
25937;DHT22;13733;51.178;4.450;2023-01-29T03:40:14;2.00;99.90
25937;DHT22;13733;51.178;4.450;2023-01-29T03:50:53;1.90;99.90
25937;DHT22;13733;51.178;4.450;2023-01-29T03:59:04;2.00;99.90
25937;DHT22;13733;51.178;4.450;2023-01-29T04:02:02;2.10;99.90
25937;DHT22;13733;51.178;4.450;2023-01-29T04:04:32;2.10;99.90
25937;DHT22;13733;51.178;4.450;2023-01-29T04:07:04;2.10;99.90
25937;DHT22;13733;51.178;4.450;2023-01-29T04:09:46;1.90;99.90
25937;DHT22;13733;51.178;4.450;2023-01-29T04:12:16;2.00;99.90
25937;DHT22;13733;51.178;4.450;2023-01-29T04:14:43;1.90;99.90
25937;DHT22;13733;51.178;4.450;2023-01-29T04:17:22;1.80;99.90
25937;DHT22;13733;51.178;4.450;2023-01-29T04:20:05;2.00;99.90
25937;DHT22;13733;51.178;4.450;2023-01-29T04:22:34;1.90;99.90
25937;DHT22;13733;51.178;4.450;2023-01-29T04:25:07;1.80;99.90
25937;DHT22;13733;51.178;4.450;2023-01-29T04:27:56;1.70;99.90
25937;DHT22;13733;51.178;4.450;2023-01-29T04:33:34;2.00;99.90
25937;DHT22;13733;51.178;4.450;2023-01-29T04:36:19;2.00;99.90
25937;DHT22;13733;51.178;4.450;2023-01-29T04:41:41;2.00;99.90
25937;DHT22;13733;51.178;4.450;2023-01-29T04:45:07;1.80;99.90
25937;DHT22;13733;51.178;4.450;2023-01-29T04:47:49;1.80;99.90
25937;DHT22;13733;51.178;4.450;2023-01-29T04:53:10;1.80;99.90
25937;DHT22;13733;51.178;4.450;2023-01-29T04:55:49;1.90;99.90
25937;DHT22;13733;51.178;4.450;2023-01-29T05:00:46;2.10;99.90
25937;DHT22;13733;51.178;4.450;2023-01-29T05:03:14;2.10;99.90
25937;DHT22;13733;51.178;4.450;2023-01-29T05:05:41;2.10;99.90
25937;DHT22;13733;51.178;4.450;2023-01-29T05:08:11;2.20;99.90
25937;DHT22;13733;51.178;4.450;2023-01-29T05:10:38;2.10;99.90
25937;DHT22;13733;51.178;4.450;2023-01-29T05:13:07;2.30;99.90
25937;DHT22;13733;51.178;4.450;2023-01-29T05:15:39;2.20;99.90
25937;DHT22;13733;51.178;4.450;2023-01-29T05:18:07;2.30;99.90
25937;DHT22;13733;51.178;4.450;2023-01-29T05:20:38;2.30;99.90
25937;DHT22;13733;51.178;4.450;2023-01-29T05:23:17;2.50;99.90
25937;DHT22;13733;51.178;4.450;2023-01-29T05:25:44;2.30;99.90
25937;DHT22;13733;51.178;4.450;2023-01-29T05:28:10;2.20;99.90
25937;DHT22;13733;51.178;4.450;2023-01-29T05:30:42;2.30;99.90
25937;DHT22;13733;51.178;4.450;2023-01-29T05:33:14;2.50;99.90
25937;DHT22;13733;51.178;4.450;2023-01-29T05:35:40;2.50;99.90
25937;DHT22;13733;51.178;4.450;2023-01-29T05:38:07;2.40;99.90
25937;DHT22;13733;51.178;4.450;2023-01-29T05:40:32;2.50;99.90
25937;DHT22;13733;51.178;4.450;2023-01-29T05:42:58;2.50;99.90
25937;DHT22;13733;51.178;4.450;2023-01-29T05:45:24;2.40;99.90
25937;DHT22;13733;51.178;4.450;2023-01-29T05:47:50;2.30;99.90
25937;DHT22;13733;51.178;4.450;2023-01-29T05:50:15;2.50;99.90
25937;DHT22;13733;51.178;4.450;2023-01-29T05:52:41;2.60;99.90
25937;DHT22;13733;51.178;4.450;2023-01-29T05:55:09;2.60;99.90
25937;DHT22;13733;51.178;4.450;2023-01-29T05:57:36;2.60;99.90
25937;DHT22;13733;51.178;4.450;2023-01-29T06:00:02;2.70;99.90
25937;DHT22;13733;51.178;4.450;2023-01-29T06:02:38;2.50;99.90
25937;DHT22;13733;51.178;4.450;2023-01-29T06:05:04;2.60;99.90
25937;DHT22;13733;51.178;4.450;2023-01-29T06:07:29;2.50;99.90
25937;DHT22;13733;51.178;4.450;2023-01-29T06:09:55;2.60;99.90
25937;DHT22;13733;51.178;4.450;2023-01-29T06:12:21;2.80;99.90
25937;DHT22;13733;51.178;4.450;2023-01-29T06:14:46;2.60;99.90
25937;DHT22;13733;51.178;4.450;2023-01-29T06:17:12;2.40;99.90
25937;DHT22;13733;51.178;4.450;2023-01-29T06:19:39;2.30;99.90
25937;DHT22;13733;51.178;4.450;2023-01-29T06:22:04;2.30;99.90
25937;DHT22;13733;51.178;4.450;2023-01-29T06:24:30;2.30;99.90
25937;DHT22;13733;51.178;4.450;2023-01-29T06:26:57;2.20;99.90
25937;DHT22;13733;51.178;4.450;2023-01-29T06:29:22;2.20;99.90
25937;DHT22;13733;51.178;4.450;2023-01-29T06:31:49;2.30;99.90
25937;DHT22;13733;51.178;4.450;2023-01-29T06:34:15;2.30;99.90
25937;DHT22;13733;51.178;4.450;2023-01-29T06:36:41;2.50;99.90
25937;DHT22;13733;51.178;4.450;2023-01-29T06:39:06;2.50;99.90
25937;DHT22;13733;51.178;4.450;2023-01-29T06:41:33;2.40;99.90
25937;DHT22;13733;51.178;4.450;2023-01-29T06:43:59;2.30;99.90
25937;DHT22;13733;51.178;4.450;2023-01-29T06:46:24;2.20;99.90
25937;DHT22;13733;51.178;4.450;2023-01-29T06:48:50;2.20;99.90
25937;DHT22;13733;51.178;4.450;2023-01-29T06:51:16;2.10;99.90
25937;DHT22;13733;51.178;4.450;2023-01-29T06:53:42;2.10;99.90
25937;DHT22;13733;51.178;4.450;2023-01-29T06:56:08;2.30;99.90
25937;DHT22;13733;51.178;4.450;2023-01-29T06:58:37;2.30;99.90
25937;DHT22;13733;51.178;4.450;2023-01-29T07:01:08;2.30;99.90
25937;DHT22;13733;51.178;4.450;2023-01-29T07:03:34;2.40;99.90
25937;DHT22;13733;51.178;4.450;2023-01-29T07:06:00;2.50;99.90
25937;DHT22;13733;51.178;4.450;2023-01-29T07:08:26;2.50;99.90
25937;DHT22;13733;51.178;4.450;2023-01-29T07:10:57;2.50;99.90
25937;DHT22;13733;51.178;4.450;2023-01-29T07:13:23;2.50;99.90
25937;DHT22;13733;51.178;4.450;2023-01-29T07:15:49;2.50;99.90
25937;DHT22;13733;51.178;4.450;2023-01-29T07:18:15;2.60;99.90
25937;DHT22;13733;51.178;4.450;2023-01-29T07:20:42;2.80;99.90
25937;DHT22;13733;51.178;4.450;2023-01-29T07:23:11;2.70;99.90
25937;DHT22;13733;51.178;4.450;2023-01-29T07:25:38;2.80;99.90
25937;DHT22;13733;51.178;4.450;2023-01-29T07:28:04;2.90;99.90
25937;DHT22;13733;51.178;4.450;2023-01-29T07:30:30;2.90;99.90
25937;DHT22;13733;51.178;4.450;2023-01-29T07:33:01;2.90;99.90
25937;DHT22;13733;51.178;4.450;2023-01-29T07:35:27;2.90;99.90
25937;DHT22;13733;51.178;4.450;2023-01-29T07:37:52;3.00;99.90
25937;DHT22;13733;51.178;4.450;2023-01-29T07:40:18;3.10;99.90
25937;DHT22;13733;51.178;4.450;2023-01-29T07:42:44;3.10;99.90
25937;DHT22;13733;51.178;4.450;2023-01-29T07:45:10;3.00;99.90
25937;DHT22;13733;51.178;4.450;2023-01-29T07:47:36;3.00;99.90
25937;DHT22;13733;51.178;4.450;2023-01-29T07:50:03;3.00;99.90
25937;DHT22;13733;51.178;4.450;2023-01-29T07:52:31;3.20;99.90
25937;DHT22;13733;51.178;4.450;2023-01-29T07:54:57;3.30;99.90
25937;DHT22;13733;51.178;4.450;2023-01-29T07:57:23;3.30;99.90
25937;DHT22;13733;51.178;4.450;2023-01-29T07:59:49;3.20;99.90
25937;DHT22;13733;51.178;4.450;2023-01-29T08:02:16;3.20;99.90
25937;DHT22;13733;51.178;4.450;2023-01-29T08:04:41;3.20;99.90
25937;DHT22;13733;51.178;4.450;2023-01-29T08:07:07;3.30;99.90
25937;DHT22;13733;51.178;4.450;2023-01-29T08:09:34;3.20;99.90
25937;DHT22;13733;51.178;4.450;2023-01-29T08:12:00;3.20;99.90
25937;DHT22;13733;51.178;4.450;2023-01-29T08:14:26;3.30;99.90
25937;DHT22;13733;51.178;4.450;2023-01-29T08:16:52;3.30;99.90
25937;DHT22;13733;51.178;4.450;2023-01-29T08:19:18;3.40;99.90
25937;DHT22;13733;51.178;4.450;2023-01-29T08:21:44;3.40;99.90
25937;DHT22;13733;51.178;4.450;2023-01-29T08:24:09;3.70;99.90
25937;DHT22;13733;51.178;4.450;2023-01-29T08:26:35;3.70;99.90
25937;DHT22;13733;51.178;4.450;2023-01-29T08:29:01;3.70;99.90
25937;DHT22;13733;51.178;4.450;2023-01-29T08:31:26;3.80;99.90
25937;DHT22;13733;51.178;4.450;2023-01-29T08:33:53;3.60;99.90
25937;DHT22;13733;51.178;4.450;2023-01-29T08:36:19;3.50;99.90
25937;DHT22;13733;51.178;4.450;2023-01-29T08:38:45;3.40;99.90
25937;DHT22;13733;51.178;4.450;2023-01-29T08:41:11;3.40;99.90
25937;DHT22;13733;51.178;4.450;2023-01-29T08:43:37;3.40;99.90
25937;DHT22;13733;51.178;4.450;2023-01-29T08:46:04;3.40;99.90
25937;DHT22;13733;51.178;4.450;2023-01-29T08:48:30;3.60;99.90
25937;DHT22;13733;51.178;4.450;2023-01-29T08:50:57;3.70;99.90
25937;DHT22;13733;51.178;4.450;2023-01-29T08:53:24;3.80;99.90
25937;DHT22;13733;51.178;4.450;2023-01-29T08:55:51;3.80;99.90
25937;DHT22;13733;51.178;4.450;2023-01-29T08:58:17;3.80;99.90
25937;DHT22;13733;51.178;4.450;2023-01-29T09:00:43;4.00;99.90
25937;DHT22;13733;51.178;4.450;2023-01-29T09:03:09;4.00;99.90
25937;DHT22;13733;51.178;4.450;2023-01-29T09:05:36;3.80;99.90
25937;DHT22;13733;51.178;4.450;2023-01-29T09:08:03;3.80;99.90
25937;DHT22;13733;51.178;4.450;2023-01-29T09:10:29;3.80;99.90
25937;DHT22;13733;51.178;4.450;2023-01-29T09:12:54;3.80;99.90
25937;DHT22;13733;51.178;4.450;2023-01-29T09:15:20;4.00;99.90
25937;DHT22;13733;51.178;4.450;2023-01-29T09:17:47;3.90;99.90
25937;DHT22;13733;51.178;4.450;2023-01-29T09:20:17;3.90;99.90
25937;DHT22;13733;51.178;4.450;2023-01-29T09:22:43;3.90;99.90
25937;DHT22;13733;51.178;4.450;2023-01-29T09:25:08;3.90;99.90
25937;DHT22;13733;51.178;4.450;2023-01-29T09:27:35;3.80;99.90
25937;DHT22;13733;51.178;4.450;2023-01-29T09:30:02;3.80;99.90
25937;DHT22;13733;51.178;4.450;2023-01-29T09:32:28;3.90;99.90
25937;DHT22;13733;51.178;4.450;2023-01-29T09:34:56;4.00;99.90
25937;DHT22;13733;51.178;4.450;2023-01-29T09:37:21;4.20;99.90
25937;DHT22;13733;51.178;4.450;2023-01-29T09:39:48;3.90;99.90
25937;DHT22;13733;51.178;4.450;2023-01-29T09:45:13;3.90;99.90
25937;DHT22;13733;51.178;4.450;2023-01-29T09:47:40;3.90;99.90
25937;DHT22;13733;51.178;4.450;2023-01-29T09:50:12;4.00;99.90
25937;DHT22;13733;51.178;4.450;2023-01-29T09:52:52;4.10;99.90
25937;DHT22;13733;51.178;4.450;2023-01-29T09:55:39;4.00;99.90
25937;DHT22;13733;51.178;4.450;2023-01-29T10:04:06;4.20;99.90
25937;DHT22;13733;51.178;4.450;2023-01-29T10:17:37;4.10;99.90
25937;DHT22;13733;51.178;4.450;2023-01-29T10:23:01;4.20;99.90
25937;DHT22;13733;51.178;4.450;2023-01-29T10:25:28;4.20;99.90
25937;DHT22;13733;51.178;4.450;2023-01-29T10:27:58;4.20;99.90
25937;DHT22;13733;51.178;4.450;2023-01-29T10:30:43;4.20;99.90
25937;DHT22;13733;51.178;4.450;2023-01-29T10:33:24;4.30;99.90
25937;DHT22;13733;51.178;4.450;2023-01-29T10:35:59;4.50;99.90
25937;DHT22;13733;51.178;4.450;2023-01-29T10:49:07;4.60;99.90
25937;DHT22;13733;51.178;4.450;2023-01-29T10:52:02;4.80;99.90
25937;DHT22;13733;51.178;4.450;2023-01-29T11:02:18;4.60;99.90
25937;DHT22;13733;51.178;4.450;2023-01-29T11:04:46;4.60;99.90
25937;DHT22;13733;51.178;4.450;2023-01-29T11:07:13;4.50;99.90
25937;DHT22;13733;51.178;4.450;2023-01-29T11:10:24;4.50;99.90
25937;DHT22;13733;51.178;4.450;2023-01-29T11:12:44;4.60;99.90
25937;DHT22;13733;51.178;4.450;2023-01-29T11:15:27;4.70;99.90
25937;DHT22;13733;51.178;4.450;2023-01-29T11:18:11;4.70;99.90
25937;DHT22;13733;51.178;4.450;2023-01-29T11:20:42;4.80;99.90
25937;DHT22;13733;51.178;4.450;2023-01-29T11:23:25;4.80;99.90
25937;DHT22;13733;51.178;4.450;2023-01-29T11:25:53;5.00;99.90
25937;DHT22;13733;51.178;4.450;2023-01-29T11:28:50;5.10;99.90
25937;DHT22;13733;51.178;4.450;2023-01-29T11:33:49;5.70;99.90
25937;DHT22;13733;51.178;4.450;2023-01-29T11:36:21;6.20;99.90
25937;DHT22;13733;51.178;4.450;2023-01-29T11:41:48;6.30;99.90
25937;DHT22;13733;51.178;4.450;2023-01-29T11:44:19;6.40;99.90
25937;DHT22;13733;51.178;4.450;2023-01-29T11:46:45;6.20;99.90
25937;DHT22;13733;51.178;4.450;2023-01-29T11:49:32;6.30;99.90
25937;DHT22;13733;51.178;4.450;2023-01-29T11:52:03;6.10;99.90
25937;DHT22;13733;51.178;4.450;2023-01-29T11:54:49;6.30;99.90
25937;DHT22;13733;51.178;4.450;2023-01-29T11:59:56;6.40;99.90
25937;DHT22;13733;51.178;4.450;2023-01-29T12:02:28;6.30;99.90
25937;DHT22;13733;51.178;4.450;2023-01-29T12:05:15;6.40;99.90
25937;DHT22;13733;51.178;4.450;2023-01-29T12:07:47;6.20;99.90
25937;DHT22;13733;51.178;4.450;2023-01-29T12:10:34;5.80;99.90
25937;DHT22;13733;51.178;4.450;2023-01-29T12:15:38;6.10;99.90
25937;DHT22;13733;51.178;4.450;2023-01-29T12:18:36;6.10;99.90
25937;DHT22;13733;51.178;4.450;2023-01-29T12:21:11;6.20;99.90
25937;DHT22;13733;51.178;4.450;2023-01-29T12:25:02;6.40;99.90
25937;DHT22;13733;51.178;4.450;2023-01-29T12:29:54;6.30;99.90
25937;DHT22;13733;51.178;4.450;2023-01-29T12:35:37;6.30;99.90
25937;DHT22;13733;51.178;4.450;2023-01-29T12:38:14;6.20;99.90
25937;DHT22;13733;51.178;4.450;2023-01-29T12:43:16;6.20;99.90
25937;DHT22;13733;51.178;4.450;2023-01-29T12:45:45;6.20;99.90
25937;DHT22;13733;51.178;4.450;2023-01-29T12:48:14;6.30;99.90
25937;DHT22;13733;51.178;4.450;2023-01-29T12:50:44;6.40;99.90
25937;DHT22;13733;51.178;4.450;2023-01-29T12:56:02;6.30;99.90
25937;DHT22;13733;51.178;4.450;2023-01-29T12:58:36;6.10;99.90
25937;DHT22;13733;51.178;4.450;2023-01-29T13:04:34;6.50;99.90
25937;DHT22;13733;51.178;4.450;2023-01-29T13:07:19;6.60;99.90
25937;DHT22;13733;51.178;4.450;2023-01-29T13:09:52;6.20;99.90
25937;DHT22;13733;51.178;4.450;2023-01-29T13:12:20;6.10;99.90
25937;DHT22;13733;51.178;4.450;2023-01-29T13:14:57;6.10;99.90
25937;DHT22;13733;51.178;4.450;2023-01-29T13:20:47;6.00;99.90
25937;DHT22;13733;51.178;4.450;2023-01-29T13:23:24;5.80;99.90
25937;DHT22;13733;51.178;4.450;2023-01-29T13:25:52;6.00;99.90
25937;DHT22;13733;51.178;4.450;2023-01-29T13:28:21;5.90;99.90
25937;DHT22;13733;51.178;4.450;2023-01-29T13:31:17;5.90;99.90
25937;DHT22;13733;51.178;4.450;2023-01-29T13:36:44;5.90;99.90
25937;DHT22;13733;51.178;4.450;2023-01-29T13:41:50;6.40;99.90
25937;DHT22;13733;51.178;4.450;2023-01-29T13:44:21;6.00;99.90
25937;DHT22;13733;51.178;4.450;2023-01-29T13:47:06;5.90;99.90
25937;DHT22;13733;51.178;4.450;2023-01-29T13:49:37;5.90;99.90
25937;DHT22;13733;51.178;4.450;2023-01-29T13:52:39;6.00;99.90
25937;DHT22;13733;51.178;4.450;2023-01-29T13:57:47;6.10;99.90
25937;DHT22;13733;51.178;4.450;2023-01-29T14:03:32;5.90;99.90
25937;DHT22;13733;51.178;4.450;2023-01-29T14:05:44;5.90;99.90
25937;DHT22;13733;51.178;4.450;2023-01-29T14:08:43;5.90;99.90
25937;DHT22;13733;51.178;4.450;2023-01-29T14:13:38;6.00;99.90
25937;DHT22;13733;51.178;4.450;2023-01-29T14:18:31;5.70;99.90
25937;DHT22;13733;51.178;4.450;2023-01-29T14:23:55;5.80;99.90
25937;DHT22;13733;51.178;4.450;2023-01-29T14:26:26;5.80;99.90
25937;DHT22;13733;51.178;4.450;2023-01-29T14:28:58;5.80;99.90
25937;DHT22;13733;51.178;4.450;2023-01-29T14:31:38;6.00;99.90
25937;DHT22;13733;51.178;4.450;2023-01-29T14:34:12;6.10;99.90
25937;DHT22;13733;51.178;4.450;2023-01-29T14:36:41;5.80;99.90
25937;DHT22;13733;51.178;4.450;2023-01-29T14:41:54;6.10;99.90
25937;DHT22;13733;51.178;4.450;2023-01-29T14:50:02;5.70;99.90
25937;DHT22;13733;51.178;4.450;2023-01-29T14:52:37;5.90;99.90
25937;DHT22;13733;51.178;4.450;2023-01-29T14:55:14;5.80;99.90
25937;DHT22;13733;51.178;4.450;2023-01-29T14:57:44;5.80;99.90
25937;DHT22;13733;51.178;4.450;2023-01-29T15:00:33;5.70;99.90
25937;DHT22;13733;51.178;4.450;2023-01-29T15:03:00;5.70;99.90
25937;DHT22;13733;51.178;4.450;2023-01-29T15:05:30;5.80;99.90
25937;DHT22;13733;51.178;4.450;2023-01-29T15:08:05;5.70;99.90
25937;DHT22;13733;51.178;4.450;2023-01-29T15:14:21;5.40;99.90
25937;DHT22;13733;51.178;4.450;2023-01-29T15:17:03;5.60;99.90
25937;DHT22;13733;51.178;4.450;2023-01-29T15:19:40;5.60;99.90
25937;DHT22;13733;51.178;4.450;2023-01-29T15:22:20;5.70;99.90
25937;DHT22;13733;51.178;4.450;2023-01-29T15:25:01;5.60;99.90
25937;DHT22;13733;51.178;4.450;2023-01-29T15:27:27;5.70;99.90
25937;DHT22;13733;51.178;4.450;2023-01-29T15:30:01;5.80;99.90
25937;DHT22;13733;51.178;4.450;2023-01-29T15:32:46;5.60;99.90
25937;DHT22;13733;51.178;4.450;2023-01-29T15:35:47;5.60;99.90
25937;DHT22;13733;51.178;4.450;2023-01-29T15:38:18;5.70;99.90
25937;DHT22;13733;51.178;4.450;2023-01-29T15:40:59;5.90;99.90
25937;DHT22;13733;51.178;4.450;2023-01-29T15:43:30;5.70;99.90
25937;DHT22;13733;51.178;4.450;2023-01-29T15:46:26;5.90;99.90
25937;DHT22;13733;51.178;4.450;2023-01-29T15:48:56;5.80;99.90
25937;DHT22;13733;51.178;4.450;2023-01-29T15:51:25;5.70;99.90
25937;DHT22;13733;51.178;4.450;2023-01-29T15:53:57;5.80;99.90
25937;DHT22;13733;51.178;4.450;2023-01-29T15:56:30;5.70;99.90
25937;DHT22;13733;51.178;4.450;2023-01-29T15:59:00;5.60;99.90
25937;DHT22;13733;51.178;4.450;2023-01-29T16:01:28;5.40;99.90
25937;DHT22;13733;51.178;4.450;2023-01-29T16:03:54;5.30;99.90
25937;DHT22;13733;51.178;4.450;2023-01-29T16:06:21;5.40;99.90
25937;DHT22;13733;51.178;4.450;2023-01-29T16:08:50;5.60;99.90
25937;DHT22;13733;51.178;4.450;2023-01-29T16:11:18;5.60;99.90
25937;DHT22;13733;51.178;4.450;2023-01-29T16:13:46;5.60;99.90
25937;DHT22;13733;51.178;4.450;2023-01-29T16:18:41;5.20;99.90
25937;DHT22;13733;51.178;4.450;2023-01-29T16:21:23;5.30;99.90
25937;DHT22;13733;51.178;4.450;2023-01-29T16:24:06;5.20;99.90
25937;DHT22;13733;51.178;4.450;2023-01-29T16:26:36;5.10;99.90
25937;DHT22;13733;51.178;4.450;2023-01-29T16:29:07;5.00;99.90
25937;DHT22;13733;51.178;4.450;2023-01-29T16:31:35;4.90;99.90
25937;DHT22;13733;51.178;4.450;2023-01-29T16:34:15;5.00;99.90
25937;DHT22;13733;51.178;4.450;2023-01-29T16:36:44;5.00;99.90
25937;DHT22;13733;51.178;4.450;2023-01-29T16:39:18;4.90;99.90
25937;DHT22;13733;51.178;4.450;2023-01-29T16:42:01;4.80;99.90
25937;DHT22;13733;51.178;4.450;2023-01-29T16:47:13;5.00;99.90
25937;DHT22;13733;51.178;4.450;2023-01-29T16:54:59;4.90;99.90
25937;DHT22;13733;51.178;4.450;2023-01-29T16:57:29;4.80;99.90
25937;DHT22;13733;51.178;4.450;2023-01-29T16:59:59;4.80;99.90
25937;DHT22;13733;51.178;4.450;2023-01-29T17:02:28;4.90;99.90
25937;DHT22;13733;51.178;4.450;2023-01-29T17:05:02;5.00;99.90
25937;DHT22;13733;51.178;4.450;2023-01-29T17:07:30;5.00;99.90
25937;DHT22;13733;51.178;4.450;2023-01-29T17:09:59;5.10;99.90
25937;DHT22;13733;51.178;4.450;2023-01-29T17:12:26;5.10;99.90
25937;DHT22;13733;51.178;4.450;2023-01-29T17:14:55;5.10;99.90
25937;DHT22;13733;51.178;4.450;2023-01-29T17:17:28;5.00;99.90
25937;DHT22;13733;51.178;4.450;2023-01-29T17:19:54;4.90;99.90
25937;DHT22;13733;51.178;4.450;2023-01-29T17:22:19;4.90;99.90
25937;DHT22;13733;51.178;4.450;2023-01-29T17:24:45;4.90;99.90
25937;DHT22;13733;51.178;4.450;2023-01-29T17:27:18;4.90;99.90
25937;DHT22;13733;51.178;4.450;2023-01-29T17:29:44;4.80;99.90
25937;DHT22;13733;51.178;4.450;2023-01-29T17:32:10;4.90;99.90
25937;DHT22;13733;51.178;4.450;2023-01-29T17:34:36;4.90;99.90
25937;DHT22;13733;51.178;4.450;2023-01-29T17:37:02;4.70;99.90
25937;DHT22;13733;51.178;4.450;2023-01-29T17:39:28;4.60;99.90
25937;DHT22;13733;51.178;4.450;2023-01-29T17:41:55;4.70;99.90
25937;DHT22;13733;51.178;4.450;2023-01-29T17:44:22;4.60;99.90
25937;DHT22;13733;51.178;4.450;2023-01-29T17:46:50;4.60;99.90
25937;DHT22;13733;51.178;4.450;2023-01-29T17:49:26;4.60;99.90
25937;DHT22;13733;51.178;4.450;2023-01-29T17:51:53;4.80;99.90
25937;DHT22;13733;51.178;4.450;2023-01-29T17:54:19;5.00;99.90
25937;DHT22;13733;51.178;4.450;2023-01-29T17:56:46;4.90;99.90
25937;DHT22;13733;51.178;4.450;2023-01-29T17:59:23;4.90;99.90
25937;DHT22;13733;51.178;4.450;2023-01-29T18:01:50;4.80;99.90
25937;DHT22;13733;51.178;4.450;2023-01-29T18:04:16;4.70;99.90
25937;DHT22;13733;51.178;4.450;2023-01-29T18:06:43;4.80;99.90
25937;DHT22;13733;51.178;4.450;2023-01-29T18:09:14;4.90;99.90
25937;DHT22;13733;51.178;4.450;2023-01-29T18:11:41;4.90;99.90
25937;DHT22;13733;51.178;4.450;2023-01-29T18:14:07;5.00;99.90
25937;DHT22;13733;51.178;4.450;2023-01-29T18:16:33;4.90;99.90
25937;DHT22;13733;51.178;4.450;2023-01-29T18:19:07;4.80;99.90
25937;DHT22;13733;51.178;4.450;2023-01-29T18:21:34;4.60;99.90
25937;DHT22;13733;51.178;4.450;2023-01-29T18:24:00;4.60;99.90
25937;DHT22;13733;51.178;4.450;2023-01-29T18:26:26;4.70;99.90
25937;DHT22;13733;51.178;4.450;2023-01-29T18:28:51;4.60;99.90
25937;DHT22;13733;51.178;4.450;2023-01-29T18:31:17;4.60;99.90
25937;DHT22;13733;51.178;4.450;2023-01-29T18:33:43;4.50;99.90
25937;DHT22;13733;51.178;4.450;2023-01-29T18:36:09;4.60;99.90
25937;DHT22;13733;51.178;4.450;2023-01-29T18:38:34;4.70;99.90
25937;DHT22;13733;51.178;4.450;2023-01-29T18:41:07;4.70;99.90
25937;DHT22;13733;51.178;4.450;2023-01-29T18:43:39;4.70;99.90
25937;DHT22;13733;51.178;4.450;2023-01-29T18:46:05;4.90;99.90
25937;DHT22;13733;51.178;4.450;2023-01-29T18:48:33;4.90;99.90